• Join FlightAware (Why Join?)
  • Login
  • US Flag 
05:53AM EDT


 

Airport Tracker/Info


-or-


 

Live Flight TrackerFlight Track Log ✈ FLG3733 ✈ 01-Feb-2014 ✈ KRDU - KMSP

Flight Track Log - Related Links

Times and Time Zones

All times are in EST time to prevent confusion due to time zone crossing. See the FLG3733 flight status page for this flight to view local times or setup timezone preferences in your user account.

Time Position Orientation Groundspeed Altitude Reporting Facility
EST Latitude Longitude Course Direction KTS MPH feet Rate Location/Type
12:24PM 35.8686 -78.8114 228° Southwest 169 194 1,300  Level Washington Center
12:24PM 35.8578 -78.8264 228° Southwest 170 196 2,000 2,100 Climbing Washington Center
12:25PM 35.8397 -78.8794 247° West 209 241 4,100 2,220 Climbing Washington Center
12:27PM 35.9275 -79.0189 308° West 288 331 8,900 2,280 Climbing Washington Center
12:28PM 35.9689 -79.1081 300° West 283 326 11,100 1,680 Climbing Washington Center
12:29PM 36.0078 -79.1972 298° West 303 349 12,400 1,620 Climbing Washington Center
12:30PM 36.0564 -79.3150 297° West 339 390 14,400 1,920 Climbing Washington Center
12:31PM 36.1361 -79.3728 330° Northwest 365 420 16,300 1,740 Climbing Washington Center
12:32PM 36.2261 -79.4233 336° Northwest 374 430 17,900 1,800 Climbing Washington Center
12:33PM 36.3217 -79.5053 325° Northwest 385 443 20,000 1,920 Climbing Washington Center
12:34PM 36.4167 -79.5928 323° Northwest 385 443 21,900 1,440 Climbing Washington Center
12:35PM 36.5000 -79.6642 325° Northwest 395 455 23,000 540 Climbing Washington Center
12:36PM 36.5847 -79.7461 322° Northwest 395 455 23,000  Level Washington Center
12:37PM 36.6414 -79.8528 304° West 383 441 23,000 660 Level Washington Center
12:38PM 36.7000 -79.9622 304° West 376 433 24,400 1,440 Climbing Washington Center
12:39PM 36.7886 -80.1325 303° West 363 418 26,600 1,320 Climbing Atlanta Center
12:40PM 36.8419 -80.2364 303° West 375 432 27,700 1,020 Climbing Atlanta Center
12:41PM 36.8994 -80.3503 302° West 380 437 28,700 1,080 Climbing Atlanta Center
12:42PM 36.9594 -80.4669 303° West 391 450 29,900 1,080 Climbing Atlanta Center
12:43PM 37.0189 -80.5814 303° West 391 450 30,900 1,080 Climbing Atlanta Center
12:46PM 37.2050 -80.8056 316° Northwest 417 480 33,600 900 Climbing Indianapolis Center
12:47PM 37.3153 -80.8975 326° Northwest 409 471 34,000 180 Climbing Indianapolis Center
12:48PM 37.4094 -80.9753 327° Northwest 413 475 34,000  Level Indianapolis Center
12:49PM 37.5036 -81.0536 327° Northwest 415 478 34,000  Level Indianapolis Center
12:50PM 37.5997 -81.1328 327° Northwest 419 482 34,000  Level Indianapolis Center
12:51PM 37.6939 -81.2122 326° Northwest 417 480 34,000  Level Indianapolis Center
12:52PM 37.8078 -81.3075 327° Northwest 419 482 34,000  Level Indianapolis Center
12:53PM 37.8922 -81.3778 327° Northwest 414 476 34,000  Level Indianapolis Center
12:54PM 37.9881 -81.4589 326° Northwest 412 474 34,000  Level Indianapolis Center
12:55PM 38.0828 -81.5400 326° Northwest 409 471 34,000  Level Indianapolis Center
12:56PM 38.1772 -81.6194 327° Northwest 407 468 34,000  Level Indianapolis Center
12:57PM 38.2717 -81.6997 326° Northwest 404 465 34,000  Level Indianapolis Center
12:58PM 38.3636 -81.7869 323° Northwest 409 471 34,000  Level Indianapolis Center
12:59PM 38.4450 -81.8869 316° Northwest 404 465 34,000  Level Indianapolis Center
01:00PM 38.5422 -82.0053 316° Northwest 400 460 34,000  Level Indianapolis Center
01:01PM 38.6225 -82.1056 316° Northwest 400 460 34,000  Level Indianapolis Center
01:02PM 38.7022 -82.2047 316° Northwest 399 459 34,000  Level Indianapolis Center
01:03PM 38.7811 -82.3031 316° Northwest 393 452 34,000  Level Indianapolis Center
01:04PM 38.8589 -82.3994 316° Northwest 388 447 34,000  Level Indianapolis Center
01:05PM 38.9350 -82.4950 316° Northwest 383 441 34,000  Level Indianapolis Center
01:06PM 39.0094 -82.5911 315° West 378 435 34,000  Level Indianapolis Center
01:07PM 39.0842 -82.6847 316° Northwest 374 430 34,000  Level Indianapolis Center
01:08PM 39.1592 -82.7794 316° Northwest 376 433 34,000  Level Indianapolis Center
01:09PM 39.2292 -82.8686 315° West 378 435 34,000  Level Indianapolis Center
01:10PM 39.3181 -82.9817 315° West 375 432 34,000  Level Indianapolis Center
01:11PM 39.3922 -83.0756 316° Northwest 374 430 34,000  Level Indianapolis Center
01:12PM 39.4661 -83.1706 315° West 373 429 34,000  Level Indianapolis Center
01:13PM 39.5397 -83.2661 315° West 375 432 34,000  Level Indianapolis Center
01:14PM 39.6133 -83.3611 315° West 373 429 34,000  Level Indianapolis Center
01:15PM 39.6875 -83.4572 315° West 373 429 34,000  Level Indianapolis Center
01:16PM 39.7614 -83.5561 314° West 373 429 34,000  Level Indianapolis Center
01:17PM 39.8378 -83.6542 315° West 374 430 34,000  Level Indianapolis Center
01:18PM 39.9122 -83.7517 315° West 375 432 34,000  Level Indianapolis Center
01:19PM 39.9858 -83.8481 315° West 374 430 34,000  Level Indianapolis Center
01:20PM 40.0597 -83.9444 315° West 375 432 34,000  Level Indianapolis Center
01:21PM 40.1325 -84.0400 315° West 375 432 34,000  Level Indianapolis Center
01:22PM 40.2064 -84.1375 315° West 376 433 34,000  Level Indianapolis Center
01:23PM 40.2775 -84.2336 314° West 372 428 34,000  Level Indianapolis Center
01:24PM 40.3633 -84.3489 314° West 369 425 34,000  Level Indianapolis Center
01:26PM 40.4350 -84.4442 315° West 366 421 34,000 480 Level Indianapolis Center
01:27PM 40.5069 -84.5406 314° West 369 425 35,000 960 Climbing Indianapolis Center
01:28PM 40.5772 -84.6361 314° West 366 421 36,000 480 Climbing Indianapolis Center
01:28PM 40.6367 -84.7158 315° West 364 419 36,000  Level Chicago Center
01:29PM 40.7097 -84.8161 314° West 359 413 36,000  Level Chicago Center
01:31PM 40.7769 -84.9089 314° West 353 406 36,000  Level Chicago Center
01:32PM 40.8431 -85.0000 314° West 347 399 36,000  Level Chicago Center
01:33PM 40.9078 -85.0872 314° West 337 388 36,000  Level Chicago Center
01:34PM 40.9725 -85.1756 314° West 335 386 36,000  Level Chicago Center
01:35PM 41.0353 -85.2653 313° West 334 384 36,000  Level Chicago Center
01:36PM 41.1119 -85.3719 314° West 332 382 36,000  Level Chicago Center
01:37PM 41.1761 -85.4631 313° West 335 386 36,000  Level Chicago Center
01:38PM 41.2422 -85.5569 313° West 343 395 36,000  Level Chicago Center
01:39PM 41.3097 -85.6522 313° West 351 404 36,000  Level Chicago Center
01:40PM 41.3786 -85.7517 313° West 361 415 36,000  Level Chicago Center
01:41PM 41.4486 -85.8536 313° West 369 425 36,000  Level Chicago Center
01:42PM 41.5181 -85.9539 313° West 367 422 36,000  Level Chicago Center
01:43PM 41.5872 -86.0544 313° West 366 421 36,000  Level Chicago Center
01:44PM 41.6561 -86.1547 313° West 364 419 36,000  Level Chicago Center
01:45PM 41.7253 -86.2542 313° West 365 420 36,000  Level Chicago Center
01:46PM 41.7928 -86.3536 312° West 359 413 36,000  Level Chicago Center
01:47PM 41.8622 -86.4506 314° West 358 412 36,000  Level Chicago Center
01:48PM 41.9311 -86.5478 314° West 358 412 36,000  Level Chicago Center
01:49PM 42.0133 -86.6658 313° West 359 413 36,000  Level Chicago Center
01:50PM 42.0819 -86.7614 314° West 354 407 36,000  Level Chicago Center
01:51PM 42.1500 -86.8600 313° West 358 412 36,000  Level Chicago Center
01:52PM 42.2172 -86.9583 313° West 356 410 36,000  Level Chicago Center
01:53PM 42.2797 -87.0492 313° West 356 410 36,000  Level Chicago Center
01:54PM 42.3481 -87.1511 312° West 354 407 36,000  Level Chicago Center
01:55PM 42.4125 -87.2517 311° West 352 405 36,000  Level Chicago Center
01:56PM 42.4781 -87.3517 312° West 353 406 36,000  Level Chicago Center
01:57PM 42.5531 -87.4708 311° West 355 409 36,000  Level Chicago Center
01:58PM 42.6172 -87.5728 311° West 356 410 36,000  Level Chicago Center
01:59PM 42.6831 -87.6736 312° West 356 410 36,000  Level Chicago Center
02:00PM 42.7486 -87.7767 311° West 359 413 36,000  Level Chicago Center
02:01PM 42.8125 -87.8789 310° West 357 411 36,000  Level Chicago Center
02:02PM 42.8781 -87.9825 311° West 360 414 36,000  Level Chicago Center
02:03PM 42.9433 -88.0875 310° West 361 415 36,000  Level Chicago Center
02:04PM 43.0086 -88.1906 311° West 359 413 36,000  Level Chicago Center
02:05PM 43.0872 -88.3178 310° West 363 418 36,000  Level Chicago Center
02:06PM 43.1528 -88.4228 311° West 361 415 36,000  Level Chicago Center
02:07PM 43.2186 -88.5292 310° West 362 417 36,000  Level Chicago Center
02:08PM 43.2842 -88.6367 310° West 364 419 36,000  Level Chicago Center
02:09PM 43.3500 -88.7431 310° West 362 417 36,000 -300 Level Chicago Center
02:10PM 43.4150 -88.8517 310° West 363 418 35,400 -540 Descending Chicago Center
02:11PM 43.4783 -88.9550 310° West 355 409 34,900 -480 Descending Chicago Center
02:12PM 43.5389 -89.0561 310° West 343 395 34,500 -480 Descending Chicago Center
02:13PM 43.6031 -89.1631 310° West 356 410 34,000 -300 Descending Chicago Center
02:14PM 43.6697 -89.2733 310° West 370 426 34,000  Level Chicago Center
02:15PM 43.7364 -89.3814 311° West 369 425 34,000  Level Chicago Center
02:16PM 43.8022 -89.4928 309° West 372 428 34,000  Level Chicago Center
02:17PM 43.8686 -89.6050 309° West 376 433 34,000  Level Chicago Center
02:18PM 43.9500 -89.7408 310° West 380 437 34,000  Level Chicago Center
02:20PM 44.0161 -89.8528 309° West 378 435 34,000  Level Chicago Center
02:21PM 44.0786 -89.9647 308° West 372 428 34,000  Level Chicago Center
02:22PM 44.1281 -90.0822 300° West 358 412 34,000  Level Chicago Center
02:23PM 44.1794 -90.1972 302° West 351 404 34,000  Level Chicago Center
02:24PM 44.2289 -90.3111 301° West 350 403 34,000  Level Chicago Center
02:25PM 44.2767 -90.4269 300° West 350 403 34,000  Level Chicago Center
02:26PM 44.3267 -90.5447 301° West 356 410 34,000  Level Chicago Center
02:27PM 44.3875 -90.6869 301° West 358 412 34,000 -120 Level Chicago Center
02:28PM 44.4397 -90.8092 301° West 365 420 33,800 -1,140 Descending Chicago Center
02:29PM 44.4908 -90.9314 300° West 367 422 31,700 -2,040 Descending Chicago Center
02:30PM 44.5428 -91.0564 300° West 372 428 29,700 -1,980 Descending Chicago Center
02:31PM 44.5947 -91.1786 301° West 370 426 27,700 -1,920 Descending Chicago Center
02:32PM 44.6619 -91.3381 301° West 361 415 25,100 -2,100 Descending Minneapolis Center
02:33PM 44.7228 -91.4858 300° West 362 417 22,700 -2,160 Descending Minneapolis Center
02:34PM 44.7731 -91.6064 300° West 362 417 20,700 -1,980 Descending Minneapolis Center
02:35PM 44.8211 -91.7239 300° West 352 405 18,700 -1,860 Descending Minneapolis Center
02:36PM 44.8664 -91.8350 300° West 337 388 17,000 -1,620 Descending Minneapolis Center
02:37PM 44.9097 -91.9417 300° West 317 365 15,500 -1,500 Descending Minneapolis Center
02:38PM 44.9522 -92.0481 299° West 313 360 14,000 -1,500 Descending Minneapolis Center
02:39PM 44.9953 -92.1519 300° West 309 356 12,500 -1,440 Descending Minneapolis Center
02:40PM 45.0339 -92.2497 299° West 290 334 11,100 -840 Descending Minneapolis Center
02:41PM 45.0358 -92.3753 271° West 282 325 10,900 -600 Descending Minneapolis Center
02:42PM 44.9967 -92.4606 237° Southwest 259 298 9,900 -1,560 Descending Minneapolis Center
02:43PM 44.9594 -92.5394 236° Southwest 243 280 7,800 -1,440 Descending Minneapolis Center
02:44PM 44.9214 -92.6189 236° Southwest 244 281 7,000 -420 Descending Minneapolis Center
02:45PM 44.8828 -92.7000 236° Southwest 249 287 7,000 -480 Level Minneapolis Center
02:46PM 44.8506 -92.7661 236° Southwest 207 238 6,100 -1,020 Descending Minneapolis Center
02:48PM 44.8189 -92.8308 235° Southwest 201 231 5,000 -1,020 Descending Minneapolis Center
02:49PM 44.7872 -92.8997 237° Southwest 207 238 4,100 -540 Descending Minneapolis Center
02:50PM 44.7917 -92.9925 274° West 201 231 4,000 -420 Descending Minneapolis Center
02:51PM 44.8200 -93.0525 304° West 188 216 3,300 -840 Descending Minneapolis Center
02:52PM 44.8422 -93.1044 301° West 159 183 2,400 -840 Descending Minneapolis Center
02:53PM 44.8606 -93.1458 302° West 128 147 1,700 -720 Descending Minneapolis Center
02:55PM 44.8667 -93.2167 245° Southwest  Level FlightAware Approximate
03:02PM 44.8820 -93.2218 245° Southwest  Level Estimated
03:03PM 44.8820 -93.2218 245° Southwest  Level Estimated